Details From SVVA - Arturo Michelena Intl
To SVMI - Caracas Simon Bolivar Intl
Flight Number -
Tags Decoded
Created
Modified
Stats Distance 86 nm / 159 km
Max Altitude 0 ft / 0 m
Waypoints 3
Social Downloads 8
Likes 0
Share VATSIM

Download

Looking for another format? Having issues loading an existing format? Contact us
Advertisement - Login to hide

Notes

Decoded

Route

SVVA PBL SVMI

ID Type Via Altitude Latitude Longitude Leg Dist Tot Dist Heading (true) Name
O SVVA APT - 0 ft / 0 m 10.15040˚ -67.94203˚ - 0 nm - -
PBL VOR - 0 ft / 0 m 10.48703˚ -68.07647˚ 21 nm 21 nm 339° / 339° -
O SVMI APT - 0 ft / 0 m 10.59869˚ -66.99768˚ 64 nm 85 nm 84° / 84° -

Altitude Profile

Advertisement - Login to hide

SVVA

Details ICAO SVVA (VLN)
Name ARTURO MICHELENA INTL
Region Venezuela
Timezone America/Caracas (UTC-4.0)
Stats Elevation 1,417 ft / 432 m (AMSL)
Location 10.149733° -67.928400°
Runways 1
Magnetic Variation 11.786° W

METAR

SVVA 261700Z 14007KT 9999 SCT016 32/19 Q1014

Decode

TAF

Not found

Departure Runways

ID Width Length Bearing (true) Bearing (mag) Surface Threshold Offset Overrun Length
10 164 ft / 50 m 9,806 ft / 2,989 m 92.84° 104.63° Asphalt 0 ft / 0 m 0 ft / 0 m
28 164 ft / 50 m 9,806 ft / 2,989 m 272.85° 284.64° Asphalt 0 ft / 0 m 250 ft / 76 m

SVMI

Details ICAO SVMI (CCS)
Name Caracas Simon Bolivar Intl
Region Venezuela
Timezone America/Caracas (UTC-4.0)
Stats Elevation 235 ft / 72 m (AMSL)
Location 10.603119° -66.990585°
Runways 2
Magnetic Variation 12.329° W

METAR

SVMI 261700Z 36004KT 9999 FEW020 29/23 Q1009

Decode

TAF

Not found

Destination Runways

ID Width Length Bearing (true) Bearing (mag) Surface Threshold Offset Overrun Length
09 145 ft / 44 m 9,825 ft / 2,995 m 75.92° 88.25° Asphalt 0 ft / 0 m 0 ft / 0 m
10 148 ft / 45 m 11,472 ft / 3,497 m 88.14° 100.47° Asphalt 0 ft / 0 m 200 ft / 61 m
27 145 ft / 44 m 9,825 ft / 2,995 m 255.92° 268.25° Asphalt 0 ft / 0 m 0 ft / 0 m
28 148 ft / 45 m 11,472 ft / 3,497 m 268.15° 280.48° Asphalt 0 ft / 0 m 200 ft / 61 m

Approach Navaids

Runway Type Ident Frequency Range Bearing (true) Bearing (mag) Slope Elevation
10 Localiser IMIQ 110.10 MHz 18 nm / 33 km 87.90° 100.23° - 235 ft / 72 m (AMSL)
10 Glidescope IMIQ 110.10 MHz 10 nm / 19 km 88.14° 100.47° 3.00° 235 ft / 72 m (AMSL)
10 DME IMIQ 110.10 MHz 18 nm / 33 km - - - 235 ft / 72 m (AMSL)

Popular Alternatives